JST30 YMML-VTBS
Flight info
| Callsign | JST30 |
|---|---|
| Flight time | N/A |
| Altitude | 38000 |
| Route | KEPPA3/34 KEPPA Q168 WR T29 LIBTU/N0488F400 T29 CIN A576 ATMAP M635 BLI G464 PNK N875 ENREP M904 TONIK M644 ALUMO Y12 ALEMI TUMGA1C |
| Aircraft | B788/H-SDE1E2E3FGHIJ2J3J4J5M1RWXY/LB1D1 |
Departure
| Time | 2026-05-01 11:17 |
|---|---|
| Airport | Melbourne Airport (YMML) |
Arrival
| Time | N/A |
|---|---|
| Airport | Suvarnabhumi Airport (VTBS) |
| Time | Latitude | Longitude | Altitude | Speed | Heading |
|---|---|---|---|---|---|
| 2026-05-01 10:37 | -37.66834 | 144.84766 | 402 ft | 0 kts | 242° |
| 2026-05-01 10:56 | -37.66833 | 144.84767 | 402 ft | 2 kts | 242° |
| 2026-05-01 10:56 | -37.66824 | 144.84788 | 401 ft | 3 kts | 248° |
| 2026-05-01 10:56 | -37.66819 | 144.84811 | 398 ft | 3 kts | 274° |
| 2026-05-01 10:56 | -37.66824 | 144.84836 | 399 ft | 3 kts | 315° |
| 2026-05-01 10:57 | -37.66828 | 144.84842 | 400 ft | 0 kts | 323° |
| 2026-05-01 11:01 | -37.66827 | 144.84842 | 403 ft | 0 kts | 325° |
| 2026-05-01 11:02 | -37.66825 | 144.84841 | 403 ft | 0 kts | 334° |
| 2026-05-01 11:02 | -37.66824 | 144.84842 | 403 ft | 0 kts | 340° |
| 2026-05-01 11:02 | -37.66823 | 144.84842 | 403 ft | 0 kts | 342° |
| 2026-05-01 11:02 | -37.66818 | 144.84842 | 404 ft | 1 kts | 351° |
| 2026-05-01 11:03 | -37.66805 | 144.84840 | 404 ft | 4 kts | 354° |
| 2026-05-01 11:03 | -37.66767 | 144.84834 | 404 ft | 7 kts | 353° |
| 2026-05-01 11:04 | -37.66709 | 144.84821 | 404 ft | 10 kts | 350° |
| 2026-05-01 11:04 | -37.66653 | 144.84787 | 405 ft | 8 kts | 314° |
| 2026-05-01 11:04 | -37.66642 | 144.84741 | 406 ft | 5 kts | 270° |
| 2026-05-01 11:04 | -37.66647 | 144.84680 | 402 ft | 10 kts | 262° |
| 2026-05-01 11:05 | -37.66659 | 144.84568 | 405 ft | 16 kts | 262° |
| 2026-05-01 11:05 | -37.66676 | 144.84411 | 403 ft | 18 kts | 262° |
| 2026-05-01 11:05 | -37.66696 | 144.84255 | 401 ft | 16 kts | 257° |
| 2026-05-01 11:05 | -37.66778 | 144.84194 | 397 ft | 15 kts | 176° |
| 2026-05-01 11:06 | -37.66908 | 144.84215 | 394 ft | 22 kts | 172° |
| 2026-05-01 11:06 | -37.67070 | 144.84245 | 390 ft | 25 kts | 172° |
| 2026-05-01 11:06 | -37.67232 | 144.84276 | 387 ft | 21 kts | 171° |
| 2026-05-01 11:07 | -37.67541 | 144.84333 | 380 ft | 25 kts | 172° |
| 2026-05-01 11:07 | -37.67719 | 144.84367 | 374 ft | 25 kts | 171° |
| 2026-05-01 11:07 | -37.67891 | 144.84399 | 368 ft | 26 kts | 172° |
| 2026-05-01 11:07 | -37.68072 | 144.84432 | 365 ft | 29 kts | 171° |
| 2026-05-01 11:08 | -37.68265 | 144.84468 | 362 ft | 27 kts | 172° |
| 2026-05-01 11:09 | -37.68424 | 144.84410 | 360 ft | 21 kts | 216° |
| 2026-05-01 11:09 | -37.68521 | 144.84312 | 355 ft | 14 kts | 226° |
| 2026-05-01 11:09 | -37.68548 | 144.84252 | 354 ft | 0 kts | 253° |
| 2026-05-01 11:15 | -37.68550 | 144.84239 | 354 ft | 4 kts | 257° |
| 2026-05-01 11:15 | -37.68551 | 144.84201 | 351 ft | 4 kts | 276° |
| 2026-05-01 11:15 | -37.68542 | 144.84154 | 358 ft | 7 kts | 291° |
| 2026-05-01 11:15 | -37.68510 | 144.84096 | 357 ft | 8 kts | 322° |
| 2026-05-01 11:16 | -37.68443 | 144.84071 | 360 ft | 22 kts | 346° |
| 2026-05-01 11:16 | -37.68105 | 144.84008 | 360 ft | 77 kts | 352° |
| 2026-05-01 11:16 | -37.67403 | 144.83876 | 376 ft | 125 kts | 352° |
| 2026-05-01 11:16 | -37.66419 | 144.83694 | 470 ft | 157 kts | 349° |
| 2026-05-01 11:17 | -37.65327 | 144.83471 | 1078 ft | 159 kts | 349° |
| 2026-05-01 11:17 | -37.64224 | 144.83304 | 1808 ft | 150 kts | 1° |
| 2026-05-01 11:17 | -37.63217 | 144.83213 | 2589 ft | 148 kts | 358° |
| 2026-05-01 11:17 | -37.62140 | 144.82987 | 3061 ft | 165 kts | 354° |
| 2026-05-01 11:18 | -37.60957 | 144.82703 | 3530 ft | 180 kts | 353° |
| 2026-05-01 11:18 | -37.59713 | 144.82431 | 4148 ft | 187 kts | 353° |
| 2026-05-01 11:18 | -37.58332 | 144.82184 | 4356 ft | 215 kts | 354° |
| 2026-05-01 11:18 | -37.56776 | 144.81864 | 4617 ft | 247 kts | 345° |
| 2026-05-01 11:19 | -37.55277 | 144.80750 | 5599 ft | 248 kts | 325° |
| 2026-05-01 11:19 | -37.53946 | 144.79348 | 6508 ft | 252 kts | 321° |
| 2026-05-01 11:19 | -37.52646 | 144.77861 | 7319 ft | 256 kts | 320° |
| 2026-05-01 11:19 | -37.51302 | 144.76335 | 8086 ft | 261 kts | 321° |
| 2026-05-01 11:20 | -37.49935 | 144.74817 | 8982 ft | 262 kts | 321° |
| 2026-05-01 11:20 | -37.48563 | 144.73298 | 9825 ft | 265 kts | 320° |
| 2026-05-01 11:20 | -37.47159 | 144.71737 | 10321 ft | 279 kts | 320° |
| 2026-05-01 11:20 | -37.45638 | 144.70047 | 10416 ft | 307 kts | 320° |
| 2026-05-01 11:21 | -37.43951 | 144.68173 | 10462 ft | 334 kts | 320° |
| 2026-05-01 11:21 | -37.42162 | 144.66184 | 10754 ft | 348 kts | 320° |
| 2026-05-01 11:21 | -37.40345 | 144.64161 | 11428 ft | 351 kts | 320° |
| 2026-05-01 11:21 | -37.38495 | 144.62112 | 11972 ft | 356 kts | 320° |
| 2026-05-01 11:22 | -37.36626 | 144.60043 | 12581 ft | 361 kts | 320° |
| 2026-05-01 11:22 | -37.34729 | 144.57942 | 13158 ft | 366 kts | 320° |
| 2026-05-01 11:22 | -37.32806 | 144.55812 | 13726 ft | 371 kts | 320° |
| 2026-05-01 11:22 | -37.30863 | 144.53663 | 14262 ft | 375 kts | 320° |
| 2026-05-01 11:23 | -37.28888 | 144.51481 | 14831 ft | 377 kts | 320° |
| 2026-05-01 11:23 | -37.26913 | 144.49300 | 15383 ft | 380 kts | 320° |
| 2026-05-01 11:23 | -37.24953 | 144.47137 | 15954 ft | 381 kts | 320° |
| 2026-05-01 11:23 | -37.22944 | 144.44922 | 16444 ft | 385 kts | 320° |
| 2026-05-01 11:24 | -37.20926 | 144.42698 | 16943 ft | 387 kts | 320° |
| 2026-05-01 11:24 | -37.18899 | 144.40466 | 17429 ft | 390 kts | 320° |
| 2026-05-01 11:24 | -37.14805 | 144.35964 | 18397 ft | 394 kts | 320° |
| 2026-05-01 11:25 | -37.13724 | 144.34775 | 18635 ft | 395 kts | 320° |
| 2026-05-01 11:25 | -37.09950 | 144.30632 | 19368 ft | 399 kts | 320° |
| 2026-05-01 11:25 | -37.07857 | 144.28338 | 19766 ft | 401 kts | 320° |
| 2026-05-01 11:26 | -37.05755 | 144.26034 | 20156 ft | 403 kts | 320° |
| 2026-05-01 11:26 | -37.01525 | 144.21403 | 21003 ft | 404 kts | 320° |
| 2026-05-01 11:26 | -36.99398 | 144.19078 | 21340 ft | 406 kts | 320° |
| 2026-05-01 11:27 | -36.97265 | 144.16748 | 21695 ft | 408 kts | 320° |
| 2026-05-01 11:27 | -36.95125 | 144.14412 | 22032 ft | 410 kts | 320° |
| 2026-05-01 11:27 | -36.92973 | 144.12064 | 22357 ft | 411 kts | 320° |
| 2026-05-01 11:27 | -36.90814 | 144.09713 | 22668 ft | 413 kts | 320° |
| 2026-05-01 11:28 | -36.88669 | 144.07377 | 22998 ft | 414 kts | 320° |
| 2026-05-01 11:28 | -36.86492 | 144.05007 | 23299 ft | 416 kts | 320° |
| 2026-05-01 11:28 | -36.84294 | 144.02618 | 23597 ft | 418 kts | 320° |
| 2026-05-01 11:29 | -36.79904 | 143.97820 | 24088 ft | 421 kts | 317° |
| 2026-05-01 11:29 | -36.77935 | 143.95098 | 24300 ft | 424 kts | 313° |
| 2026-05-01 11:29 | -36.74045 | 143.89546 | 24714 ft | 426 kts | 313° |
| 2026-05-01 11:30 | -36.72754 | 143.87699 | 24873 ft | 427 kts | 313° |
| 2026-05-01 11:30 | -36.70804 | 143.84906 | 25062 ft | 429 kts | 313° |
| 2026-05-01 11:30 | -36.68836 | 143.82093 | 25268 ft | 430 kts | 313° |
| 2026-05-01 11:30 | -36.66866 | 143.79284 | 25467 ft | 431 kts | 313° |
| 2026-05-01 11:31 | -36.64888 | 143.76465 | 25666 ft | 433 kts | 313° |
| 2026-05-01 11:31 | -36.62902 | 143.73635 | 25874 ft | 434 kts | 312° |
| 2026-05-01 11:31 | -36.60917 | 143.70809 | 26106 ft | 434 kts | 312° |
| 2026-05-01 11:31 | -36.58922 | 143.67970 | 26298 ft | 436 kts | 312° |
| 2026-05-01 11:32 | -36.56918 | 143.65123 | 26522 ft | 437 kts | 312° |
| 2026-05-01 11:32 | -36.54909 | 143.62271 | 26703 ft | 438 kts | 312° |
| 2026-05-01 11:32 | -36.52896 | 143.59415 | 26898 ft | 440 kts | 312° |
| 2026-05-01 11:32 | -36.50901 | 143.56587 | 27087 ft | 441 kts | 312° |
| 2026-05-01 11:33 | -36.48873 | 143.53715 | 27321 ft | 441 kts | 312° |
| 2026-05-01 11:33 | -36.46843 | 143.50842 | 27518 ft | 443 kts | 312° |
| 2026-05-01 11:33 | -36.44806 | 143.47965 | 27758 ft | 444 kts | 312° |
| 2026-05-01 11:33 | -36.42763 | 143.45078 | 27963 ft | 445 kts | 312° |
| 2026-05-01 11:34 | -36.40715 | 143.42187 | 28150 ft | 446 kts | 312° |
| 2026-05-01 11:34 | -36.38662 | 143.39291 | 28349 ft | 448 kts | 312° |
| 2026-05-01 11:34 | -36.36602 | 143.36389 | 28540 ft | 449 kts | 312° |
| 2026-05-01 11:34 | -36.34530 | 143.33474 | 28721 ft | 450 kts | 312° |
| 2026-05-01 11:35 | -36.32453 | 143.30553 | 28918 ft | 452 kts | 312° |
| 2026-05-01 11:35 | -36.30364 | 143.27617 | 29105 ft | 453 kts | 312° |
| 2026-05-01 11:35 | -36.28278 | 143.24689 | 29285 ft | 454 kts | 312° |
| 2026-05-01 11:35 | -36.26207 | 143.21784 | 29536 ft | 455 kts | 312° |
| 2026-05-01 11:36 | -36.24110 | 143.18844 | 29699 ft | 456 kts | 312° |
| 2026-05-01 11:36 | -36.21996 | 143.15884 | 29877 ft | 458 kts | 312° |
| 2026-05-01 11:36 | -36.19883 | 143.12929 | 30057 ft | 459 kts | 312° |
| 2026-05-01 11:36 | -36.17762 | 143.09964 | 30229 ft | 461 kts | 312° |
| 2026-05-01 11:37 | -36.15633 | 143.06990 | 30398 ft | 462 kts | 312° |
| 2026-05-01 11:37 | -36.13501 | 143.04015 | 30559 ft | 462 kts | 312° |
| 2026-05-01 11:37 | -36.11366 | 143.01039 | 30717 ft | 463 kts | 312° |
| 2026-05-01 11:37 | -36.09226 | 142.98060 | 30954 ft | 462 kts | 311° |
| 2026-05-01 11:38 | -36.07092 | 142.95090 | 31111 ft | 463 kts | 311° |
| 2026-05-01 11:38 | -36.04949 | 142.92109 | 31265 ft | 464 kts | 311° |
| 2026-05-01 11:38 | -36.02798 | 142.89122 | 31413 ft | 465 kts | 311° |
| 2026-05-01 11:38 | -36.00646 | 142.86136 | 31564 ft | 466 kts | 311° |
| 2026-05-01 11:39 | -35.98487 | 142.83141 | 31713 ft | 467 kts | 311° |
| 2026-05-01 11:39 | -35.96329 | 142.80151 | 31936 ft | 466 kts | 311° |
| 2026-05-01 11:39 | -35.94176 | 142.77172 | 32176 ft | 465 kts | 311° |
| 2026-05-01 11:39 | -35.92025 | 142.74198 | 32441 ft | 464 kts | 311° |
| 2026-05-01 11:40 | -35.89886 | 142.71242 | 32707 ft | 463 kts | 311° |
| 2026-05-01 11:40 | -35.87737 | 142.68275 | 32976 ft | 462 kts | 311° |
| 2026-05-01 11:40 | -35.85598 | 142.65324 | 33243 ft | 461 kts | 311° |
| 2026-05-01 11:40 | -35.83466 | 142.62387 | 33513 ft | 460 kts | 311° |
| 2026-05-01 11:41 | -35.81330 | 142.59446 | 33796 ft | 459 kts | 311° |
| 2026-05-01 11:41 | -35.79199 | 142.56514 | 34078 ft | 458 kts | 311° |
| 2026-05-01 11:41 | -35.77099 | 142.53628 | 34312 ft | 458 kts | 311° |
| 2026-05-01 11:41 | -35.74977 | 142.50714 | 34529 ft | 457 kts | 311° |
| 2026-05-01 11:42 | -35.72854 | 142.47801 | 34764 ft | 457 kts | 311° |
| 2026-05-01 11:42 | -35.70735 | 142.44896 | 34975 ft | 456 kts | 311° |
| 2026-05-01 11:42 | -35.68588 | 142.41956 | 35210 ft | 455 kts | 311° |
| 2026-05-01 11:42 | -35.66502 | 142.39102 | 35427 ft | 455 kts | 311° |
| 2026-05-01 11:43 | -35.64385 | 142.36206 | 35645 ft | 454 kts | 311° |
| 2026-05-01 11:43 | -35.62100 | 142.33085 | 35869 ft | 454 kts | 311° |
| 2026-05-01 11:43 | -35.59991 | 142.30206 | 36089 ft | 453 kts | 311° |
| 2026-05-01 11:44 | -35.56022 | 142.24796 | 36523 ft | 451 kts | 311° |
| 2026-05-01 11:44 | -35.54946 | 142.23330 | 36635 ft | 451 kts | 311° |
| 2026-05-01 11:44 | -35.52850 | 142.20477 | 36864 ft | 450 kts | 311° |
| 2026-05-01 11:44 | -35.52163 | 142.19543 | 36920 ft | 450 kts | 311° |
| 2026-05-01 11:45 | -35.50406 | 142.17155 | 37104 ft | 450 kts | 311° |
| 2026-05-01 11:45 | -35.48313 | 142.14312 | 37317 ft | 449 kts | 311° |
| 2026-05-01 11:45 | -35.46945 | 142.12455 | 37459 ft | 449 kts | 311° |
| 2026-05-01 11:45 | -35.45765 | 142.10853 | 37577 ft | 448 kts | 311° |
| 2026-05-01 11:46 | -35.43672 | 142.08015 | 37765 ft | 448 kts | 311° |
| 2026-05-01 11:46 | -35.41586 | 142.05189 | 37990 ft | 448 kts | 311° |
| 2026-05-01 11:46 | -35.39498 | 142.02363 | 38258 ft | 446 kts | 311° |
| 2026-05-01 11:46 | -35.37419 | 141.99551 | 38478 ft | 445 kts | 311° |
| 2026-05-01 11:47 | -35.35345 | 141.96748 | 38696 ft | 444 kts | 311° |
| 2026-05-01 11:47 | -35.33293 | 141.93977 | 38837 ft | 445 kts | 311° |
| 2026-05-01 11:47 | -35.29122 | 141.88353 | 39050 ft | 446 kts | 311° |
| 2026-05-01 11:48 | -35.24933 | 141.82712 | 39118 ft | 450 kts | 311° |
| 2026-05-01 11:48 | -35.21657 | 141.78307 | 39122 ft | 449 kts | 311° |
| 2026-05-01 11:49 | -35.19170 | 141.74969 | 39126 ft | 447 kts | 311° |
| 2026-05-01 11:49 | -35.14989 | 141.69360 | 39119 ft | 446 kts | 311° |
| 2026-05-01 11:50 | -35.10807 | 141.63761 | 39113 ft | 445 kts | 311° |
| 2026-05-01 11:50 | -35.06635 | 141.58184 | 39110 ft | 445 kts | 311° |
| 2026-05-01 11:51 | -35.02464 | 141.52618 | 39108 ft | 444 kts | 311° |
| 2026-05-01 11:51 | -34.98282 | 141.47045 | 39109 ft | 446 kts | 311° |
| 2026-05-01 11:52 | -34.90193 | 141.36296 | 39112 ft | 447 kts | 311° |
| 2026-05-01 11:53 | -34.85991 | 141.30725 | 39117 ft | 445 kts | 311° |
| 2026-05-01 11:53 | -34.81831 | 141.25218 | 39108 ft | 443 kts | 311° |
| 2026-05-01 11:54 | -34.77654 | 141.19698 | 39111 ft | 444 kts | 311° |
| 2026-05-01 11:54 | -34.73462 | 141.14167 | 39108 ft | 445 kts | 311° |
| 2026-05-01 11:55 | -34.69260 | 141.08631 | 39104 ft | 445 kts | 311° |
| 2026-05-01 11:55 | -34.65064 | 141.03113 | 39096 ft | 444 kts | 311° |
| 2026-05-01 11:56 | -34.60874 | 140.97611 | 39104 ft | 443 kts | 311° |
| 2026-05-01 11:56 | -34.56682 | 140.92115 | 39095 ft | 443 kts | 311° |
| 2026-05-01 11:57 | -34.52493 | 140.86633 | 39102 ft | 443 kts | 311° |
| 2026-05-01 11:57 | -34.48347 | 140.81215 | 39084 ft | 439 kts | 311° |
| 2026-05-01 11:58 | -34.44186 | 140.75785 | 39082 ft | 440 kts | 311° |
| 2026-05-01 11:59 | -34.37915 | 140.67619 | 39097 ft | 441 kts | 311° |
| 2026-05-01 11:59 | -34.33726 | 140.62175 | 39089 ft | 441 kts | 311° |
| 2026-05-01 12:00 | -34.27467 | 140.54057 | 39084 ft | 439 kts | 311° |
| 2026-05-01 12:01 | -34.21213 | 140.45963 | 39073 ft | 439 kts | 311° |
| 2026-05-01 12:01 | -34.17064 | 140.40604 | 39075 ft | 439 kts | 311° |
| 2026-05-01 12:02 | -34.12898 | 140.35231 | 39172 ft | 441 kts | 313° |
| 2026-05-01 12:02 | -34.10825 | 140.32564 | 39037 ft | 428 kts | 311° |
| 2026-05-01 12:02 | -34.08817 | 140.29982 | 39059 ft | 415 kts | 311° |
| 2026-05-01 12:03 | -34.04854 | 140.24879 | 39078 ft | 421 kts | 311° |
| 2026-05-01 12:03 | -34.00809 | 140.19690 | 39078 ft | 429 kts | 311° |
| 2026-05-01 12:04 | -33.96692 | 140.14411 | 39075 ft | 435 kts | 311° |
| 2026-05-01 12:04 | -33.92511 | 140.09061 | 39068 ft | 439 kts | 311° |
| 2026-05-01 12:05 | -33.88332 | 140.03721 | 39054 ft | 438 kts | 311° |
| 2026-05-01 12:05 | -33.82075 | 139.95740 | 39057 ft | 436 kts | 311° |
| 2026-05-01 12:06 | -33.77915 | 139.90444 | 39061 ft | 435 kts | 311° |
| 2026-05-01 12:06 | -33.73777 | 139.85184 | 39066 ft | 436 kts | 311° |
| 2026-05-01 12:07 | -33.69600 | 139.79883 | 39057 ft | 436 kts | 311° |
| 2026-05-01 12:07 | -33.65433 | 139.74602 | 39054 ft | 435 kts | 311° |
| 2026-05-01 12:08 | -33.61283 | 139.69350 | 39057 ft | 432 kts | 311° |
| 2026-05-01 12:08 | -33.57142 | 139.64118 | 39059 ft | 433 kts | 311° |
| 2026-05-01 12:09 | -33.53015 | 139.58911 | 39056 ft | 434 kts | 311° |
| 2026-05-01 12:09 | -33.48852 | 139.53667 | 39070 ft | 435 kts | 311° |
| 2026-05-01 12:10 | -33.42604 | 139.45811 | 39074 ft | 432 kts | 312° |
| 2026-05-01 12:11 | -33.36319 | 139.38075 | 39071 ft | 432 kts | 313° |
| 2026-05-01 12:11 | -33.32078 | 139.32952 | 39079 ft | 433 kts | 313° |
| 2026-05-01 12:12 | -33.27815 | 139.27853 | 39067 ft | 431 kts | 313° |
| 2026-05-01 12:12 | -33.23588 | 139.22784 | 39060 ft | 430 kts | 313° |
| 2026-05-01 12:13 | -33.19393 | 139.17769 | 39061 ft | 429 kts | 313° |
| 2026-05-01 12:13 | -33.15158 | 139.12711 | 39069 ft | 431 kts | 313° |
| 2026-05-01 12:14 | -33.10908 | 139.07644 | 39079 ft | 432 kts | 313° |
| 2026-05-01 12:14 | -33.06674 | 139.02602 | 39071 ft | 429 kts | 313° |
| 2026-05-01 12:15 | -33.02446 | 138.97575 | 39068 ft | 429 kts | 313° |
| 2026-05-01 12:15 | -32.98218 | 138.92556 | 39072 ft | 428 kts | 313° |
| 2026-05-01 12:16 | -32.95209 | 138.88988 | 39074 ft | 429 kts | 313° |
| 2026-05-01 12:16 | -32.90956 | 138.83949 | 39079 ft | 430 kts | 313° |
| 2026-05-01 12:17 | -32.86716 | 138.78936 | 39071 ft | 429 kts | 313° |
| 2026-05-01 12:17 | -32.82477 | 138.73929 | 39078 ft | 429 kts | 313° |
| 2026-05-01 12:18 | -32.78264 | 138.68960 | 39069 ft | 429 kts | 313° |
| 2026-05-01 12:18 | -32.74018 | 138.63960 | 39067 ft | 429 kts | 313° |
| 2026-05-01 12:19 | -32.69789 | 138.58987 | 39063 ft | 427 kts | 313° |
| 2026-05-01 12:19 | -32.65570 | 138.54032 | 39059 ft | 426 kts | 313° |
| 2026-05-01 12:20 | -32.61372 | 138.49109 | 39055 ft | 426 kts | 313° |
| 2026-05-01 12:20 | -32.57154 | 138.44170 | 39044 ft | 425 kts | 313° |
| 2026-05-01 12:21 | -32.52946 | 138.39250 | 39027 ft | 424 kts | 313° |
| 2026-05-01 12:21 | -32.48746 | 138.34344 | 39031 ft | 424 kts | 313° |
| 2026-05-01 12:22 | -32.45250 | 138.30266 | 39024 ft | 425 kts | 313° |
| 2026-05-01 12:22 | -32.40317 | 138.24521 | 39023 ft | 425 kts | 313° |
| 2026-05-01 12:23 | -32.36804 | 138.20434 | 39019 ft | 426 kts | 313° |
| 2026-05-01 12:23 | -32.31893 | 138.14731 | 39024 ft | 426 kts | 313° |
| 2026-05-01 12:24 | -32.27665 | 138.09827 | 39020 ft | 425 kts | 313° |
| 2026-05-01 12:24 | -32.24155 | 138.05762 | 39017 ft | 425 kts | 313° |
| 2026-05-01 12:25 | -32.17813 | 137.98427 | 39020 ft | 424 kts | 313° |
| 2026-05-01 12:26 | -32.13596 | 137.93559 | 38999 ft | 424 kts | 313° |
| 2026-05-01 12:26 | -32.07268 | 137.86266 | 38996 ft | 424 kts | 313° |
| 2026-05-01 12:27 | -32.00959 | 137.79010 | 38995 ft | 424 kts | 313° |
| 2026-05-01 12:28 | -31.94622 | 137.71737 | 38988 ft | 424 kts | 313° |
| 2026-05-01 12:29 | -31.88265 | 137.64455 | 39001 ft | 425 kts | 313° |
| 2026-05-01 12:29 | -31.81891 | 137.57169 | 38990 ft | 427 kts | 313° |
| 2026-05-01 12:30 | -31.75510 | 137.49891 | 38985 ft | 424 kts | 313° |
| 2026-05-01 12:31 | -31.71281 | 137.45072 | 38983 ft | 423 kts | 313° |
| 2026-05-01 12:31 | -31.67051 | 137.40262 | 38981 ft | 423 kts | 313° |
| 2026-05-01 12:32 | -31.62842 | 137.35482 | 38969 ft | 423 kts | 313° |
| 2026-05-01 12:32 | -31.56507 | 137.28298 | 38967 ft | 422 kts | 313° |
| 2026-05-01 12:33 | -31.52279 | 137.23510 | 38972 ft | 424 kts | 313° |
| 2026-05-01 12:33 | -31.48025 | 137.18702 | 38972 ft | 425 kts | 313° |
| 2026-05-01 12:34 | -31.43759 | 137.13885 | 38973 ft | 425 kts | 313° |
| 2026-05-01 12:34 | -31.39512 | 137.09097 | 38961 ft | 423 kts | 313° |
| 2026-05-01 12:35 | -31.35311 | 137.04365 | 38969 ft | 420 kts | 313° |
| 2026-05-01 12:35 | -31.31090 | 136.99618 | 38973 ft | 421 kts | 313° |
| 2026-05-01 12:36 | -31.26864 | 136.94873 | 38971 ft | 421 kts | 313° |
| 2026-05-01 12:36 | -31.22638 | 136.90132 | 38970 ft | 421 kts | 313° |
| 2026-05-01 12:37 | -31.18414 | 136.85400 | 38966 ft | 421 kts | 313° |
| 2026-05-01 12:37 | -31.14180 | 136.80670 | 38965 ft | 421 kts | 314° |
| 2026-05-01 12:38 | -31.09829 | 136.76070 | 38970 ft | 422 kts | 314° |
| 2026-05-01 12:38 | -31.05477 | 136.71459 | 38973 ft | 423 kts | 314° |
| 2026-05-01 12:39 | -31.01109 | 136.66851 | 38967 ft | 421 kts | 314° |
| 2026-05-01 12:39 | -30.96800 | 136.62303 | 38962 ft | 419 kts | 314° |
| 2026-05-01 12:40 | -30.92477 | 136.57749 | 38962 ft | 419 kts | 314° |
| 2026-05-01 12:40 | -30.88158 | 136.53204 | 38960 ft | 418 kts | 314° |
| 2026-05-01 12:41 | -30.83838 | 136.48664 | 38958 ft | 417 kts | 314° |
| 2026-05-01 12:41 | -30.79529 | 136.44141 | 38958 ft | 418 kts | 314° |
| 2026-05-01 12:42 | -30.75194 | 136.39598 | 38955 ft | 420 kts | 314° |
| 2026-05-01 12:42 | -30.70881 | 136.35082 | 38968 ft | 420 kts | 314° |
| 2026-05-01 12:43 | -30.66539 | 136.30543 | 38965 ft | 419 kts | 314° |
| 2026-05-01 12:43 | -30.62243 | 136.26059 | 38955 ft | 412 kts | 313° |
| 2026-05-01 12:44 | -30.57980 | 136.21609 | 38956 ft | 412 kts | 313° |
| 2026-05-01 12:45 | -30.49429 | 136.12708 | 38953 ft | 412 kts | 313° |
| 2026-05-01 12:45 | -30.45162 | 136.08275 | 38947 ft | 411 kts | 313° |
| 2026-05-01 12:46 | -30.40901 | 136.03852 | 38946 ft | 411 kts | 313° |
| 2026-05-01 12:46 | -30.36664 | 135.99461 | 38947 ft | 411 kts | 313° |
| 2026-05-01 12:47 | -30.32402 | 135.95048 | 38953 ft | 411 kts | 313° |
| 2026-05-01 12:47 | -30.28148 | 135.90652 | 38948 ft | 408 kts | 313° |
| 2026-05-01 12:48 | -30.23927 | 135.86288 | 38946 ft | 407 kts | 313° |
| 2026-05-01 12:48 | -30.19688 | 135.81916 | 38946 ft | 409 kts | 313° |
| 2026-05-01 12:49 | -30.15436 | 135.77535 | 38947 ft | 410 kts | 313° |
| 2026-05-01 12:49 | -30.11175 | 135.73152 | 38957 ft | 409 kts | 313° |
| 2026-05-01 12:50 | -30.06939 | 135.68797 | 38948 ft | 406 kts | 313° |
| 2026-05-01 12:50 | -30.02745 | 135.64491 | 38946 ft | 407 kts | 313° |
| 2026-05-01 12:51 | -29.98508 | 135.60147 | 38950 ft | 408 kts | 313° |
| 2026-05-01 12:52 | -29.92139 | 135.53627 | 38939 ft | 405 kts | 312° |
| 2026-05-01 12:52 | -29.85846 | 135.47193 | 38937 ft | 403 kts | 312° |
| 2026-05-01 12:53 | -29.79570 | 135.40790 | 38938 ft | 403 kts | 312° |
| 2026-05-01 12:54 | -29.75370 | 135.36511 | 38935 ft | 403 kts | 312° |
| 2026-05-01 12:54 | -29.69080 | 135.30112 | 38936 ft | 401 kts | 312° |
| 2026-05-01 12:55 | -29.62806 | 135.23740 | 38933 ft | 401 kts | 312° |
| 2026-05-01 12:56 | -29.58628 | 135.19504 | 38931 ft | 401 kts | 312° |
| 2026-05-01 12:56 | -29.54444 | 135.15267 | 38931 ft | 400 kts | 311° |
| 2026-05-01 12:57 | -29.50278 | 135.11050 | 38929 ft | 399 kts | 311° |
| 2026-05-01 12:57 | -29.44052 | 135.04761 | 38930 ft | 399 kts | 311° |
| 2026-05-01 12:58 | -29.39877 | 135.00548 | 38934 ft | 399 kts | 311° |
| 2026-05-01 12:59 | -29.33574 | 134.94197 | 38940 ft | 404 kts | 312° |
| 2026-05-01 12:59 | -29.27234 | 134.87822 | 38942 ft | 404 kts | 312° |
| 2026-05-01 13:00 | -29.20940 | 134.81503 | 38938 ft | 402 kts | 312° |
| 2026-05-01 13:01 | -29.14649 | 134.75198 | 38930 ft | 399 kts | 311° |
| 2026-05-01 13:02 | -29.08370 | 134.68915 | 38935 ft | 400 kts | 312° |
| 2026-05-01 13:07 | -28.62048 | 134.22952 | 38946 ft | 403 kts | 311° |
| 2026-05-01 13:08 | -28.57816 | 134.18785 | 38929 ft | 399 kts | 311° |
| 2026-05-01 13:08 | -28.53649 | 134.14679 | 38946 ft | 401 kts | 311° |
| 2026-05-01 13:09 | -28.49418 | 134.10523 | 38947 ft | 402 kts | 311° |
| 2026-05-01 13:09 | -28.45181 | 134.06362 | 38953 ft | 402 kts | 311° |
| 2026-05-01 13:10 | -28.40944 | 134.02208 | 38972 ft | 401 kts | 311° |
| 2026-05-01 13:10 | -28.36732 | 133.98082 | 38960 ft | 399 kts | 311° |
| 2026-05-01 13:11 | -28.33234 | 133.94656 | 38959 ft | 399 kts | 311° |
| 2026-05-01 13:11 | -28.28338 | 133.89870 | 38963 ft | 400 kts | 311° |
| 2026-05-01 13:12 | -28.24122 | 133.85752 | 38956 ft | 401 kts | 310° |
| 2026-05-01 13:12 | -28.20598 | 133.82314 | 38972 ft | 402 kts | 310° |
| 2026-05-01 13:13 | -28.16376 | 133.78203 | 38968 ft | 399 kts | 310° |
| 2026-05-01 13:13 | -28.12166 | 133.74101 | 38942 ft | 398 kts | 310° |
| 2026-05-01 13:14 | -28.07948 | 133.69998 | 38954 ft | 401 kts | 310° |
| 2026-05-01 13:14 | -28.03703 | 133.65876 | 38959 ft | 402 kts | 310° |
| 2026-05-01 13:15 | -27.99458 | 133.61756 | 38973 ft | 401 kts | 310° |
| 2026-05-01 13:15 | -27.95224 | 133.57653 | 38961 ft | 399 kts | 310° |
| 2026-05-01 13:16 | -27.91022 | 133.53581 | 38961 ft | 401 kts | 310° |
| 2026-05-01 13:16 | -27.86779 | 133.49479 | 38961 ft | 401 kts | 310° |
| 2026-05-01 13:17 | -27.78287 | 133.41278 | 38970 ft | 401 kts | 310° |
| 2026-05-01 13:18 | -27.71949 | 133.35167 | 38971 ft | 398 kts | 310° |
| 2026-05-01 13:18 | -27.67736 | 133.31112 | 38970 ft | 398 kts | 310° |
| 2026-05-01 13:19 | -27.63526 | 133.27063 | 38958 ft | 399 kts | 310° |
| 2026-05-01 13:20 | -27.57173 | 133.20962 | 38966 ft | 401 kts | 310° |
| 2026-05-01 13:20 | -27.52928 | 133.16891 | 38971 ft | 399 kts | 310° |
| 2026-05-01 13:21 | -27.46574 | 133.10803 | 38974 ft | 401 kts | 310° |
| 2026-05-01 13:21 | -27.42306 | 133.06720 | 38973 ft | 403 kts | 310° |
| 2026-05-01 13:22 | -27.38036 | 133.02640 | 38973 ft | 403 kts | 310° |
| 2026-05-01 13:22 | -27.33772 | 132.98571 | 38975 ft | 400 kts | 310° |
| 2026-05-01 13:23 | -27.29541 | 132.94532 | 38969 ft | 403 kts | 310° |
| 2026-05-01 13:23 | -27.25259 | 132.90456 | 38970 ft | 404 kts | 310° |
| 2026-05-01 13:24 | -27.20968 | 132.86372 | 38976 ft | 403 kts | 310° |
| 2026-05-01 13:25 | -27.14538 | 132.80260 | 38973 ft | 405 kts | 310° |
| 2026-05-01 13:25 | -27.10213 | 132.76154 | 38977 ft | 407 kts | 310° |
| 2026-05-01 13:26 | -27.05915 | 132.72081 | 38983 ft | 406 kts | 310° |
| 2026-05-01 13:26 | -27.01597 | 132.67990 | 38982 ft | 405 kts | 310° |
| 2026-05-01 13:27 | -26.97283 | 132.63907 | 38979 ft | 408 kts | 310° |
| 2026-05-01 13:27 | -26.90772 | 132.57761 | 38987 ft | 405 kts | 310° |
| 2026-05-01 13:28 | -26.84305 | 132.51667 | 38947 ft | 405 kts | 310° |
| 2026-05-01 13:29 | -26.75589 | 132.43473 | 38984 ft | 410 kts | 310° |
| 2026-05-01 13:31 | -26.62557 | 132.31249 | 38983 ft | 411 kts | 311° |
| 2026-05-01 13:32 | -26.51601 | 132.21006 | 38997 ft | 410 kts | 311° |
| 2026-05-01 13:33 | -26.40676 | 132.10816 | 39013 ft | 410 kts | 311° |
| 2026-05-01 13:34 | -26.31903 | 132.02651 | 39003 ft | 411 kts | 311° |
| 2026-05-01 13:35 | -26.25263 | 131.96486 | 39008 ft | 413 kts | 311° |
| 2026-05-01 13:36 | -26.18659 | 131.90358 | 39007 ft | 411 kts | 311° |
| 2026-05-01 13:36 | -26.12083 | 131.84269 | 39007 ft | 411 kts | 311° |
| 2026-05-01 13:37 | -26.07683 | 131.80199 | 39007 ft | 412 kts | 311° |
| 2026-05-01 13:37 | -26.03272 | 131.76125 | 39005 ft | 412 kts | 311° |
| 2026-05-01 13:38 | -25.96709 | 131.70065 | 39004 ft | 410 kts | 311° |
| 2026-05-01 13:39 | -25.92294 | 131.65997 | 39007 ft | 414 kts | 311° |
| 2026-05-01 13:39 | -25.87860 | 131.61917 | 39010 ft | 413 kts | 311° |
| 2026-05-01 13:40 | -25.83440 | 131.57849 | 39007 ft | 413 kts | 311° |
| 2026-05-01 13:40 | -25.79042 | 131.53808 | 39002 ft | 413 kts | 311° |
| 2026-05-01 13:41 | -25.74609 | 131.49739 | 39002 ft | 414 kts | 311° |
| 2026-05-01 13:41 | -25.70164 | 131.45663 | 39002 ft | 414 kts | 311° |
| 2026-05-01 13:42 | -25.65719 | 131.41590 | 39000 ft | 414 kts | 311° |
| 2026-05-01 13:42 | -25.61267 | 131.37516 | 38996 ft | 416 kts | 311° |
| 2026-05-01 13:43 | -25.56822 | 131.33453 | 39010 ft | 416 kts | 311° |
| 2026-05-01 13:43 | -25.52338 | 131.29358 | 39008 ft | 414 kts | 311° |
| 2026-05-01 13:44 | -25.47914 | 131.25320 | 39006 ft | 414 kts | 311° |
| 2026-05-01 13:44 | -25.43465 | 131.21263 | 38996 ft | 416 kts | 311° |
| 2026-05-01 13:45 | -25.38977 | 131.17176 | 39001 ft | 419 kts | 311° |
| 2026-05-01 13:45 | -25.34480 | 131.13087 | 39010 ft | 417 kts | 311° |
| 2026-05-01 13:46 | -25.30027 | 131.09039 | 39009 ft | 415 kts | 311° |
| 2026-05-01 13:46 | -25.25564 | 131.04985 | 39010 ft | 417 kts | 311° |
| 2026-05-01 13:47 | -25.21064 | 131.00904 | 39003 ft | 420 kts | 311° |
| 2026-05-01 13:47 | -25.16578 | 130.96789 | 39004 ft | 416 kts | 309° |
| 2026-05-01 13:48 | -25.12258 | 130.92522 | 39012 ft | 416 kts | 310° |
| 2026-05-01 13:48 | -25.07933 | 130.88269 | 38996 ft | 417 kts | 309° |
| 2026-05-01 13:49 | -25.03587 | 130.83990 | 38995 ft | 419 kts | 310° |
| 2026-05-01 13:49 | -24.99258 | 130.79740 | 39003 ft | 418 kts | 310° |
| 2026-05-01 13:50 | -24.94916 | 130.75475 | 38997 ft | 417 kts | 310° |
| 2026-05-01 13:50 | -24.90586 | 130.71230 | 38998 ft | 418 kts | 310° |
| 2026-05-01 13:51 | -24.86217 | 130.66947 | 39002 ft | 422 kts | 310° |
| 2026-05-01 13:51 | -24.81832 | 130.62659 | 39001 ft | 421 kts | 310° |
| 2026-05-01 13:52 | -24.77451 | 130.58373 | 39003 ft | 420 kts | 310° |
| 2026-05-01 13:52 | -24.73110 | 130.54133 | 39002 ft | 420 kts | 310° |
| 2026-05-01 13:53 | -24.68726 | 130.49852 | 39002 ft | 423 kts | 310° |
| 2026-05-01 13:53 | -24.62126 | 130.43422 | 39009 ft | 421 kts | 310° |
| 2026-05-01 13:54 | -24.57738 | 130.39150 | 39008 ft | 420 kts | 310° |
| 2026-05-01 13:54 | -24.53367 | 130.34897 | 39003 ft | 421 kts | 310° |
| 2026-05-01 13:55 | -24.48955 | 130.30611 | 39008 ft | 424 kts | 310° |
| 2026-05-01 13:55 | -24.44528 | 130.26314 | 39005 ft | 424 kts | 310° |
| 2026-05-01 13:56 | -24.40110 | 130.22030 | 39013 ft | 422 kts | 310° |
| 2026-05-01 13:56 | -24.35723 | 130.17780 | 39009 ft | 422 kts | 310° |
| 2026-05-01 13:57 | -24.32042 | 130.14217 | 39011 ft | 421 kts | 310° |
| 2026-05-01 13:57 | -24.26936 | 130.09279 | 39003 ft | 421 kts | 310° |
| 2026-05-01 13:58 | -24.22542 | 130.05034 | 39005 ft | 420 kts | 310° |
| 2026-05-01 13:58 | -24.18153 | 130.00799 | 39007 ft | 420 kts | 310° |
| 2026-05-01 13:59 | -24.14486 | 129.97260 | 39007 ft | 424 kts | 310° |
| 2026-05-01 13:59 | -24.09323 | 129.92290 | 39008 ft | 425 kts | 310° |
| 2026-05-01 14:00 | -24.04882 | 129.88016 | 39009 ft | 424 kts | 310° |
| 2026-05-01 14:00 | -24.01167 | 129.84444 | 39009 ft | 424 kts | 310° |
| 2026-05-01 14:01 | -23.96732 | 129.80183 | 39037 ft | 426 kts | 310° |
| 2026-05-01 14:01 | -23.92282 | 129.75914 | 39007 ft | 425 kts | 310° |
| 2026-05-01 14:02 | -23.87874 | 129.71688 | 39009 ft | 423 kts | 310° |
| 2026-05-01 14:02 | -23.83449 | 129.67447 | 39011 ft | 424 kts | 310° |
| 2026-05-01 14:03 | -23.79008 | 129.63197 | 39011 ft | 426 kts | 311° |
| 2026-05-01 14:03 | -23.74544 | 129.58930 | 39013 ft | 427 kts | 311° |
| 2026-05-01 14:04 | -23.70081 | 129.54669 | 39017 ft | 425 kts | 311° |
| 2026-05-01 14:04 | -23.65632 | 129.50421 | 39025 ft | 425 kts | 311° |
| 2026-05-01 14:05 | -23.61182 | 129.46178 | 39007 ft | 425 kts | 311° |
| 2026-05-01 14:05 | -23.56733 | 129.41940 | 39008 ft | 429 kts | 311° |
| 2026-05-01 14:06 | -23.52236 | 129.37664 | 39004 ft | 428 kts | 311° |
| 2026-05-01 14:06 | -23.47744 | 129.33392 | 39017 ft | 427 kts | 311° |
| 2026-05-01 14:07 | -23.43279 | 129.29152 | 39012 ft | 425 kts | 311° |
| 2026-05-01 14:08 | -23.36573 | 129.22788 | 39003 ft | 430 kts | 311° |
| 2026-05-01 14:08 | -23.32061 | 129.18514 | 39003 ft | 430 kts | 311° |
| 2026-05-01 14:09 | -23.27552 | 129.14245 | 39004 ft | 429 kts | 311° |
| 2026-05-01 14:09 | -23.23055 | 129.09992 | 38991 ft | 428 kts | 311° |
| 2026-05-01 14:10 | -23.18542 | 129.05726 | 39001 ft | 431 kts | 311° |
| 2026-05-01 14:10 | -23.14010 | 129.01450 | 38999 ft | 431 kts | 311° |
| 2026-05-01 14:11 | -23.09483 | 128.97178 | 38997 ft | 430 kts | 311° |
| 2026-05-01 14:11 | -23.02691 | 128.90780 | 38986 ft | 430 kts | 312° |
| 2026-05-01 14:12 | -22.98172 | 128.86526 | 39001 ft | 434 kts | 312° |
| 2026-05-01 14:12 | -22.93610 | 128.82241 | 39009 ft | 432 kts | 312° |
| 2026-05-01 14:13 | -22.89829 | 128.78688 | 39000 ft | 432 kts | 312° |
| 2026-05-01 14:13 | -22.84497 | 128.73685 | 39007 ft | 433 kts | 312° |
| 2026-05-01 14:14 | -22.79953 | 128.69423 | 39006 ft | 436 kts | 312° |
| 2026-05-01 14:14 | -22.75359 | 128.65123 | 39016 ft | 436 kts | 312° |
| 2026-05-01 14:15 | -22.70780 | 128.60839 | 39009 ft | 434 kts | 312° |
| 2026-05-01 14:15 | -22.66208 | 128.56564 | 39008 ft | 433 kts | 312° |
| 2026-05-01 14:16 | -22.61644 | 128.52301 | 38998 ft | 434 kts | 312° |
| 2026-05-01 14:16 | -22.57047 | 128.48011 | 39001 ft | 437 kts | 312° |
| 2026-05-01 14:17 | -22.52437 | 128.43715 | 39002 ft | 437 kts | 312° |
| 2026-05-01 14:17 | -22.47832 | 128.39426 | 39001 ft | 436 kts | 312° |
| 2026-05-01 14:18 | -22.43275 | 128.35185 | 38999 ft | 434 kts | 312° |
| 2026-05-01 14:18 | -22.39439 | 128.31617 | 38996 ft | 434 kts | 312° |
| 2026-05-01 14:19 | -22.34106 | 128.26663 | 39000 ft | 435 kts | 312° |
| 2026-05-01 14:19 | -22.29503 | 128.22391 | 39000 ft | 435 kts | 312° |
| 2026-05-01 14:20 | -22.22608 | 128.16000 | 38994 ft | 435 kts | 313° |
| 2026-05-01 14:21 | -22.18035 | 128.11764 | 39001 ft | 438 kts | 313° |
| 2026-05-01 14:21 | -22.13400 | 128.07477 | 39001 ft | 439 kts | 313° |
| 2026-05-01 14:22 | -22.06461 | 128.01064 | 39003 ft | 436 kts | 313° |
| 2026-05-01 14:22 | -22.01857 | 127.96814 | 38991 ft | 435 kts | 313° |
| 2026-05-01 14:23 | -21.97230 | 127.92546 | 39007 ft | 439 kts | 313° |
| 2026-05-01 14:23 | -21.92618 | 127.88299 | 39010 ft | 439 kts | 313° |
| 2026-05-01 14:24 | -21.87986 | 127.84033 | 39009 ft | 438 kts | 313° |
| 2026-05-01 14:24 | -21.83353 | 127.79772 | 39008 ft | 437 kts | 313° |
| 2026-05-01 14:25 | -21.78717 | 127.75510 | 38996 ft | 440 kts | 313° |
| 2026-05-01 14:25 | -21.74049 | 127.71226 | 39013 ft | 441 kts | 313° |
| 2026-05-01 14:26 | -21.67079 | 127.64833 | 39003 ft | 438 kts | 313° |
| 2026-05-01 14:27 | -21.62439 | 127.60582 | 39002 ft | 438 kts | 313° |
| 2026-05-01 14:27 | -21.57797 | 127.56331 | 38996 ft | 441 kts | 313° |
| 2026-05-01 14:28 | -21.50762 | 127.49901 | 38997 ft | 443 kts | 313° |
| 2026-05-01 14:28 | -21.46074 | 127.45618 | 39009 ft | 442 kts | 313° |
| 2026-05-01 14:29 | -21.41398 | 127.41351 | 39005 ft | 440 kts | 313° |
| 2026-05-01 14:30 | -21.32041 | 127.32823 | 39003 ft | 445 kts | 313° |
| 2026-05-01 14:31 | -21.24965 | 127.26384 | 39007 ft | 444 kts | 313° |
| 2026-05-01 14:31 | -21.20256 | 127.22104 | 39006 ft | 444 kts | 313° |
| 2026-05-01 14:32 | -21.15540 | 127.17820 | 38994 ft | 445 kts | 313° |
| 2026-05-01 14:32 | -21.10808 | 127.13527 | 38993 ft | 446 kts | 313° |
| 2026-05-01 14:33 | -21.06075 | 127.09236 | 38997 ft | 446 kts | 313° |
| 2026-05-01 14:33 | -21.01332 | 127.04939 | 39001 ft | 446 kts | 313° |
| 2026-05-01 14:34 | -20.96602 | 127.00658 | 38974 ft | 446 kts | 314° |
| 2026-05-01 14:34 | -20.91879 | 126.96386 | 39004 ft | 449 kts | 314° |
| 2026-05-01 14:35 | -20.87113 | 126.92083 | 38999 ft | 448 kts | 314° |
| 2026-05-01 14:35 | -20.82351 | 126.87782 | 38999 ft | 447 kts | 314° |
| 2026-05-01 14:36 | -20.77608 | 126.83504 | 38995 ft | 446 kts | 314° |
| 2026-05-01 14:36 | -20.72866 | 126.79230 | 39001 ft | 448 kts | 314° |
| 2026-05-01 14:37 | -20.68076 | 126.74917 | 39001 ft | 452 kts | 314° |
| 2026-05-01 14:37 | -20.63310 | 126.70632 | 39008 ft | 449 kts | 314° |
| 2026-05-01 14:38 | -20.58538 | 126.66339 | 39000 ft | 449 kts | 314° |
| 2026-05-01 14:38 | -20.53766 | 126.62055 | 38993 ft | 448 kts | 314° |
| 2026-05-01 14:39 | -20.48979 | 126.57757 | 38992 ft | 452 kts | 314° |
| 2026-05-01 14:39 | -20.44159 | 126.53438 | 38995 ft | 452 kts | 314° |
| 2026-05-01 14:40 | -20.39340 | 126.49121 | 38996 ft | 452 kts | 314° |
| 2026-05-01 14:40 | -20.34526 | 126.44811 | 38995 ft | 451 kts | 314° |
| 2026-05-01 14:41 | -20.29742 | 126.40532 | 38998 ft | 451 kts | 314° |
| 2026-05-01 14:41 | -20.24931 | 126.36233 | 38991 ft | 451 kts | 314° |
| 2026-05-01 14:42 | -20.20118 | 126.31936 | 38993 ft | 451 kts | 314° |
| 2026-05-01 14:42 | -20.15310 | 126.27647 | 38994 ft | 451 kts | 314° |
| 2026-05-01 14:43 | -20.10502 | 126.23361 | 38993 ft | 450 kts | 314° |
| 2026-05-01 14:43 | -20.05805 | 126.18974 | 38984 ft | 449 kts | 312° |
| 2026-05-01 14:44 | -20.01176 | 126.14510 | 38986 ft | 452 kts | 312° |
| 2026-05-01 14:44 | -19.94194 | 126.07765 | 38986 ft | 451 kts | 312° |
| 2026-05-01 14:45 | -19.87222 | 126.01044 | 38985 ft | 450 kts | 312° |
| 2026-05-01 14:46 | -19.82574 | 125.96564 | 38981 ft | 453 kts | 312° |
| 2026-05-01 14:46 | -19.75572 | 125.89829 | 38983 ft | 454 kts | 312° |
| 2026-05-01 14:47 | -19.71676 | 125.86082 | 38982 ft | 453 kts | 312° |
| 2026-05-01 14:48 | -19.63879 | 125.78595 | 38963 ft | 453 kts | 313° |
| 2026-05-01 14:48 | -19.57632 | 125.72601 | 38976 ft | 456 kts | 313° |
| 2026-05-01 14:49 | -19.48209 | 125.63576 | 38971 ft | 456 kts | 313° |
| 2026-05-01 14:50 | -19.38806 | 125.54583 | 38968 ft | 457 kts | 313° |
| 2026-05-01 14:51 | -19.31712 | 125.47810 | 38976 ft | 457 kts | 313° |
| 2026-05-01 14:52 | -19.24661 | 125.41084 | 38965 ft | 455 kts | 313° |
| 2026-05-01 14:53 | -19.17602 | 125.34359 | 38973 ft | 454 kts | 313° |
| 2026-05-01 14:53 | -19.12881 | 125.29865 | 38975 ft | 458 kts | 313° |
| 2026-05-01 14:54 | -19.08136 | 125.25354 | 38978 ft | 459 kts | 313° |
| 2026-05-01 14:54 | -19.03388 | 125.20843 | 38962 ft | 458 kts | 313° |
| 2026-05-01 14:55 | -18.98656 | 125.16349 | 38961 ft | 457 kts | 313° |
| 2026-05-01 14:55 | -18.93926 | 125.11862 | 38968 ft | 457 kts | 313° |
| 2026-05-01 14:56 | -18.89200 | 125.07382 | 38971 ft | 460 kts | 313° |
| 2026-05-01 14:56 | -18.84436 | 125.02871 | 38971 ft | 460 kts | 313° |
| 2026-05-01 14:57 | -18.79666 | 124.98356 | 38974 ft | 460 kts | 313° |
| 2026-05-01 14:57 | -18.72537 | 124.91617 | 38968 ft | 457 kts | 313° |
| 2026-05-01 14:58 | -18.67790 | 124.87131 | 38956 ft | 460 kts | 313° |
| 2026-05-01 14:58 | -18.63008 | 124.82620 | 38954 ft | 461 kts | 313° |
| 2026-05-01 14:59 | -18.58250 | 124.78132 | 38956 ft | 462 kts | 313° |
| 2026-05-01 14:59 | -18.53456 | 124.73615 | 38957 ft | 462 kts | 313° |
| 2026-05-01 15:00 | -18.46286 | 124.66865 | 38954 ft | 461 kts | 313° |
| 2026-05-01 15:01 | -18.41495 | 124.62359 | 38955 ft | 462 kts | 313° |
| 2026-05-01 15:01 | -18.36692 | 124.57846 | 38957 ft | 463 kts | 313° |
| 2026-05-01 15:02 | -18.31888 | 124.53334 | 38958 ft | 462 kts | 313° |
| 2026-05-01 15:02 | -18.27085 | 124.48828 | 38958 ft | 462 kts | 313° |
| 2026-05-01 15:03 | -18.22283 | 124.44326 | 38958 ft | 463 kts | 314° |
| 2026-05-01 15:03 | -18.17449 | 124.39797 | 38960 ft | 465 kts | 314° |
| 2026-05-01 15:04 | -18.12646 | 124.35302 | 38964 ft | 465 kts | 314° |
| 2026-05-01 15:04 | -18.07818 | 124.30786 | 38966 ft | 464 kts | 314° |
| 2026-05-01 15:05 | -18.02991 | 124.26275 | 38962 ft | 464 kts | 314° |
| 2026-05-01 15:05 | -17.98168 | 124.21769 | 38963 ft | 464 kts | 314° |
| 2026-05-01 15:06 | -17.93350 | 124.17274 | 38956 ft | 462 kts | 314° |
| 2026-05-01 15:06 | -17.88554 | 124.12800 | 38954 ft | 461 kts | 314° |
| 2026-05-01 15:07 | -17.83780 | 124.08352 | 38965 ft | 463 kts | 314° |
| 2026-05-01 15:07 | -17.78952 | 124.03857 | 38967 ft | 464 kts | 314° |
| 2026-05-01 15:08 | -17.74114 | 123.99354 | 38969 ft | 467 kts | 314° |
| 2026-05-01 15:08 | -17.69238 | 123.94822 | 38969 ft | 467 kts | 314° |
| 2026-05-01 15:09 | -17.64391 | 123.90319 | 38966 ft | 464 kts | 314° |
| 2026-05-01 15:09 | -17.59594 | 123.85865 | 38964 ft | 463 kts | 314° |
| 2026-05-01 15:10 | -17.55001 | 123.81154 | 38974 ft | 463 kts | 311° |
| 2026-05-01 15:10 | -17.48105 | 123.73978 | 38970 ft | 468 kts | 311° |
| 2026-05-01 15:11 | -17.41203 | 123.66799 | 38967 ft | 465 kts | 311° |
| 2026-05-01 15:12 | -17.36615 | 123.62030 | 38964 ft | 463 kts | 311° |
| 2026-05-01 15:12 | -17.29770 | 123.54922 | 38964 ft | 465 kts | 311° |
| 2026-05-01 15:14 | -17.18216 | 123.42944 | 38964 ft | 468 kts | 311° |
| 2026-05-01 15:14 | -17.11266 | 123.35748 | 38965 ft | 468 kts | 311° |
| 2026-05-01 15:15 | -17.02025 | 123.26193 | 38957 ft | 469 kts | 311° |
| 2026-05-01 15:16 | -16.92735 | 123.16604 | 38954 ft | 468 kts | 311° |
| 2026-05-01 15:18 | -16.81149 | 123.04662 | 38955 ft | 469 kts | 311° |
| 2026-05-01 15:19 | -16.71854 | 122.95097 | 38962 ft | 471 kts | 311° |
| 2026-05-01 15:19 | -16.64848 | 122.87897 | 38955 ft | 471 kts | 311° |
| 2026-05-01 15:20 | -16.57872 | 122.80737 | 38958 ft | 471 kts | 311° |
| 2026-05-01 15:21 | -16.53204 | 122.75948 | 38952 ft | 471 kts | 311° |
| 2026-05-01 15:21 | -16.48512 | 122.71139 | 38951 ft | 473 kts | 311° |
| 2026-05-01 15:22 | -16.41473 | 122.63931 | 38958 ft | 473 kts | 311° |
| 2026-05-01 15:22 | -16.36784 | 122.59134 | 38958 ft | 472 kts | 311° |
| 2026-05-01 15:23 | -16.32103 | 122.54348 | 38956 ft | 470 kts | 311° |
| 2026-05-01 15:23 | -16.27467 | 122.49612 | 38955 ft | 470 kts | 311° |
| 2026-05-01 15:24 | -16.22779 | 122.44825 | 38955 ft | 473 kts | 311° |
| 2026-05-01 15:24 | -16.18074 | 122.40026 | 38957 ft | 474 kts | 311° |
| 2026-05-01 15:25 | -16.13366 | 122.35226 | 38961 ft | 474 kts | 311° |
| 2026-05-01 15:25 | -16.08665 | 122.30438 | 38961 ft | 472 kts | 311° |
| 2026-05-01 15:26 | -16.03979 | 122.25666 | 38955 ft | 471 kts | 311° |
| 2026-05-01 15:26 | -15.99312 | 122.20918 | 38955 ft | 474 kts | 311° |
| 2026-05-01 15:27 | -15.94589 | 122.16117 | 38955 ft | 474 kts | 311° |
| 2026-05-01 15:28 | -15.87524 | 122.08941 | 38955 ft | 473 kts | 311° |
| 2026-05-01 15:28 | -15.82812 | 122.04159 | 38955 ft | 473 kts | 311° |
| 2026-05-01 15:29 | -15.75740 | 121.96987 | 38951 ft | 474 kts | 312° |
| 2026-05-01 15:30 | -15.67081 | 121.88218 | 38954 ft | 475 kts | 312° |
| 2026-05-01 15:31 | -15.52107 | 121.73077 | 38955 ft | 475 kts | 312° |
| 2026-05-01 15:32 | -15.42672 | 121.63554 | 38958 ft | 475 kts | 312° |
| 2026-05-01 15:34 | -15.28477 | 121.49249 | 38956 ft | 474 kts | 312° |